createdAt,value
2023-10-06T00:00:11.379Z,7.60
2023-10-06T00:01:11.401Z,7.90
2023-10-06T00:02:11.413Z,7.90
2023-10-06T00:03:11.394Z,7.70
2023-10-06T00:04:11.335Z,7.70
2023-10-06T00:05:11.320Z,7.40
2023-10-06T00:06:11.297Z,7.50
2023-10-06T00:07:11.279Z,6.70
2023-10-06T00:08:11.294Z,7.50
2023-10-06T00:09:11.261Z,7.10
2023-10-06T00:10:11.252Z,7.50
2023-10-06T00:11:11.215Z,7.10
2023-10-06T00:12:11.203Z,7.10
2023-10-06T00:13:11.186Z,7.40
2023-10-06T00:14:11.285Z,7.40
2023-10-06T00:15:11.160Z,6.80
2023-10-06T00:16:11.156Z,7.20
2023-10-06T00:17:11.161Z,6.70
2023-10-06T00:18:11.194Z,7.20
2023-10-06T00:19:11.105Z,7.20
2023-10-06T00:20:11.171Z,7.60
2023-10-06T00:21:11.075Z,7.40
2023-10-06T00:22:11.069Z,7.70
2023-10-06T00:23:11.058Z,7.50
2023-10-06T00:24:11.034Z,7.90
2023-10-06T00:25:11.021Z,7.10
2023-10-06T00:26:11.047Z,7.30
2023-10-06T00:27:11.011Z,7.40
2023-10-06T00:28:10.981Z,7.70
2023-10-06T00:29:11.195Z,7.40
2023-10-06T00:30:10.970Z,7.50
2023-10-06T00:31:10.997Z,7.30
2023-10-06T00:32:10.986Z,8.10
2023-10-06T00:33:10.938Z,7.70
2023-10-06T00:34:10.903Z,8.20
2023-10-06T00:35:10.904Z,8.40
2023-10-06T00:36:10.865Z,7.50
2023-10-06T00:37:10.854Z,7.60
2023-10-06T00:38:10.905Z,7.30
2023-10-06T00:39:10.848Z,7.90
2023-10-06T00:40:10.840Z,7.90
2023-10-06T00:41:10.820Z,8.50
2023-10-06T00:42:10.804Z,8.50
2023-10-06T00:43:10.790Z,8.80
2023-10-06T00:44:10.849Z,9.30
2023-10-06T00:45:10.775Z,8.40
2023-10-06T00:46:10.739Z,8.30
2023-10-06T00:47:10.823Z,7.90
2023-10-06T00:48:10.745Z,7.90
2023-10-06T00:49:10.840Z,8.10
2023-10-06T00:50:10.776Z,7.80
2023-10-06T00:51:10.663Z,8.30
2023-10-06T00:52:10.675Z,7.80
2023-10-06T00:53:10.654Z,7.50
2023-10-06T00:54:10.637Z,8.30
2023-10-06T00:55:10.653Z,7.90
2023-10-06T00:56:10.717Z,7.90
2023-10-06T00:57:10.620Z,7.90
2023-10-06T00:58:10.572Z,8.90
2023-10-06T00:59:10.738Z,8.10
2023-10-06T01:00:10.600Z,8.50
2023-10-06T01:01:10.588Z,9.00
2023-10-06T01:02:10.648Z,8.70
2023-10-06T01:03:10.665Z,8.40
2023-10-06T01:04:10.481Z,8.60
2023-10-06T01:05:10.477Z,8.90
2023-10-06T01:06:10.452Z,8.80
2023-10-06T01:07:10.481Z,9.00
2023-10-06T01:08:10.545Z,8.10
2023-10-06T01:09:10.765Z,8.10
2023-10-06T01:10:10.441Z,8.90
2023-10-06T01:11:10.400Z,8.80
2023-10-06T01:12:10.557Z,8.60
2023-10-06T01:13:10.372Z,9.10
2023-10-06T01:14:10.368Z,8.80
2023-10-06T01:15:10.344Z,9.70
2023-10-06T01:16:10.405Z,9.80
2023-10-06T01:17:10.378Z,10.50
2023-10-06T01:18:10.328Z,8.60
2023-10-06T01:19:10.310Z,8.50
2023-10-06T01:20:10.297Z,8.00
2023-10-06T01:21:10.267Z,8.90
2023-10-06T01:22:10.287Z,8.40
2023-10-06T01:23:10.255Z,8.40
2023-10-06T01:24:10.223Z,8.40
2023-10-06T01:25:10.206Z,7.70
2023-10-06T01:26:10.207Z,7.90
2023-10-06T01:27:10.252Z,7.50
2023-10-06T01:28:10.168Z,8.10
2023-10-06T01:29:10.408Z,8.30
2023-10-06T01:30:10.137Z,8.70
2023-10-06T01:31:10.174Z,8.50
2023-10-06T01:32:10.227Z,8.80
2023-10-06T01:33:10.095Z,8.50
2023-10-06T01:34:10.094Z,8.10
2023-10-06T01:35:10.128Z,7.50
2023-10-06T01:36:10.059Z,7.90
2023-10-06T01:37:10.088Z,7.80
2023-10-06T01:38:10.070Z,8.00
2023-10-06T01:39:10.254Z,8.50
2023-10-06T01:40:10.024Z,7.40
2023-10-06T01:41:10.024Z,7.60
2023-10-06T01:42:10.005Z,7.20
2023-10-06T01:43:09.987Z,7.90
2023-10-06T01:44:09.962Z,7.40
2023-10-06T01:45:09.929Z,7.60
2023-10-06T01:46:09.976Z,7.50
2023-10-06T01:47:09.949Z,7.40
2023-10-06T01:48:09.940Z,7.70
2023-10-06T01:49:10.386Z,7.30
2023-10-06T01:50:10.043Z,7.40
2023-10-06T01:51:09.863Z,8.50
2023-10-06T01:52:10.462Z,8.80
2023-10-06T01:53:09.913Z,9.50
2023-10-06T01:54:09.841Z,9.50
2023-10-06T01:55:09.796Z,9.30
2023-10-06T01:56:09.834Z,10.00
2023-10-06T01:57:09.767Z,9.60
2023-10-06T01:58:09.765Z,10.40
2023-10-06T01:59:09.941Z,9.60
2023-10-06T02:00:09.777Z,9.50
2023-10-06T02:01:09.734Z,9.50
2023-10-06T02:02:09.836Z,10.20
2023-10-06T02:03:09.823Z,10.20
2023-10-06T02:04:09.685Z,9.90
2023-10-06T02:05:09.773Z,9.50
2023-10-06T02:06:09.655Z,9.80
2023-10-06T02:07:09.657Z,9.90
2023-10-06T02:08:09.673Z,9.90
2023-10-06T02:09:09.774Z,10.10
2023-10-06T02:10:09.614Z,10.10
2023-10-06T02:11:09.624Z,10.20
2023-10-06T02:12:09.609Z,10.50
2023-10-06T02:13:09.563Z,11.10
2023-10-06T02:14:09.606Z,11.70
2023-10-06T02:15:09.533Z,11.10
2023-10-06T02:16:09.566Z,10.60
2023-10-06T02:17:09.631Z,10.10
2023-10-06T02:18:09.523Z,10.00
2023-10-06T02:19:09.594Z,9.90
2023-10-06T02:20:09.534Z,9.40
2023-10-06T02:21:09.494Z,9.40
2023-10-06T02:22:09.430Z,9.40
2023-10-06T02:23:09.449Z,8.70
2023-10-06T02:24:09.425Z,9.20
2023-10-06T02:25:09.410Z,9.00
2023-10-06T02:26:09.437Z,8.90
2023-10-06T02:27:09.404Z,9.30
2023-10-06T02:28:09.352Z,9.20
2023-10-06T02:29:09.554Z,9.00
2023-10-06T02:30:09.334Z,8.70
2023-10-06T02:31:09.327Z,9.60
2023-10-06T02:32:09.642Z,9.70
2023-10-06T02:33:09.298Z,10.80
2023-10-06T02:34:09.290Z,10.30
2023-10-06T02:35:09.418Z,10.30
2023-10-06T02:36:09.261Z,10.20
2023-10-06T02:37:09.353Z,10.10
2023-10-06T02:38:09.322Z,10.70
2023-10-06T02:39:09.384Z,12.10
2023-10-06T02:40:09.204Z,12.50
2023-10-06T02:41:09.214Z,12.40
2023-10-06T02:42:09.250Z,11.30
2023-10-06T02:43:09.184Z,12.70
2023-10-06T02:44:09.165Z,11.10
2023-10-06T02:45:09.151Z,10.00
2023-10-06T02:46:09.118Z,12.00
2023-10-06T02:47:09.182Z,10.60
2023-10-06T02:48:09.177Z,11.60
2023-10-06T02:49:09.438Z,10.60
2023-10-06T02:50:09.110Z,11.00
2023-10-06T02:51:09.053Z,10.70
2023-10-06T02:52:09.036Z,10.70
2023-10-06T02:53:09.092Z,10.80
2023-10-06T02:54:09.041Z,11.60
2023-10-06T02:55:08.989Z,11.20
2023-10-06T02:56:09.033Z,11.50
2023-10-06T02:57:08.965Z,11.20
2023-10-06T02:58:08.972Z,10.90
2023-10-06T02:59:09.131Z,11.40
2023-10-06T03:00:08.958Z,10.40
2023-10-06T03:01:08.969Z,10.50
2023-10-06T03:02:08.932Z,10.40
2023-10-06T03:03:08.915Z,10.90
2023-10-06T03:04:08.891Z,10.70
2023-10-06T03:05:08.892Z,10.80
2023-10-06T03:06:08.880Z,10.20
2023-10-06T03:07:08.833Z,9.70
2023-10-06T03:08:08.837Z,10.10
2023-10-06T03:09:09.043Z,10.10
2023-10-06T03:10:08.789Z,11.50
2023-10-06T03:11:08.833Z,10.80
2023-10-06T03:12:08.766Z,11.80
2023-10-06T03:13:08.750Z,11.60
2023-10-06T03:14:08.803Z,12.10
2023-10-06T03:15:08.733Z,12.50
2023-10-06T03:16:08.731Z,12.40
2023-10-06T03:17:08.763Z,12.00
2023-10-06T03:18:08.714Z,11.60
2023-10-06T03:19:09.004Z,11.50
2023-10-06T03:20:08.692Z,10.80
2023-10-06T03:21:08.682Z,10.60
2023-10-06T03:22:08.631Z,11.10
2023-10-06T03:23:08.677Z,11.10
2023-10-06T03:24:08.608Z,10.50
2023-10-06T03:25:08.588Z,10.10
2023-10-06T03:26:08.633Z,9.90
2023-10-06T03:27:08.551Z,10.10
2023-10-06T03:28:08.545Z,9.40
2023-10-06T03:29:08.745Z,8.80
2023-10-06T03:30:08.505Z,9.10
2023-10-06T03:31:08.514Z,9.40
2023-10-06T03:32:08.620Z,9.50
2023-10-06T03:33:08.503Z,9.10
2023-10-06T03:34:08.458Z,8.80
2023-10-06T03:35:08.478Z,9.80
2023-10-06T03:36:08.433Z,9.70
2023-10-06T03:37:08.444Z,10.70
2023-10-06T03:38:08.424Z,10.90
2023-10-06T03:39:08.731Z,10.50
2023-10-06T03:40:08.385Z,11.40
2023-10-06T03:41:08.429Z,11.40
2023-10-06T03:42:08.398Z,12.00
2023-10-06T03:43:08.335Z,11.70
2023-10-06T03:44:08.386Z,11.00
2023-10-06T03:45:08.328Z,10.90
2023-10-06T03:46:08.308Z,10.50
2023-10-06T03:47:08.304Z,10.50
2023-10-06T03:48:08.344Z,10.50
2023-10-06T03:49:08.515Z,10.90
2023-10-06T03:50:08.262Z,12.00
2023-10-06T03:51:08.240Z,12.90
2023-10-06T03:52:08.213Z,14.70
2023-10-06T03:53:08.244Z,15.30
2023-10-06T03:54:08.222Z,17.10
2023-10-06T03:55:08.172Z,15.50
2023-10-06T03:56:08.185Z,14.00
2023-10-06T03:57:08.145Z,13.70
2023-10-06T03:58:08.142Z,13.00
2023-10-06T03:59:08.344Z,12.70
2023-10-06T04:00:08.154Z,12.30
2023-10-06T04:01:08.107Z,12.10
2023-10-06T04:02:08.154Z,11.70
2023-10-06T04:03:10.506Z,11.20
2023-10-06T04:04:08.084Z,11.30
2023-10-06T04:05:08.120Z,10.70
2023-10-06T04:06:08.031Z,11.10
2023-10-06T04:07:08.008Z,11.10
2023-10-06T04:08:08.033Z,10.90
2023-10-06T04:09:08.185Z,11.90
2023-10-06T04:10:07.982Z,11.20
2023-10-06T04:11:08.016Z,10.50
2023-10-06T04:12:07.981Z,11.70
2023-10-06T04:13:08.039Z,10.50
2023-10-06T04:14:07.959Z,10.10
2023-10-06T04:15:07.920Z,11.40
2023-10-06T04:16:07.895Z,12.60
2023-10-06T04:17:07.920Z,12.80
2023-10-06T04:18:07.861Z,12.10
2023-10-06T04:19:08.126Z,12.70
2023-10-06T04:20:07.865Z,13.60
2023-10-06T04:21:07.822Z,14.30
2023-10-06T04:22:07.812Z,15.20
2023-10-06T04:23:07.891Z,13.30
2023-10-06T04:24:07.783Z,13.20
2023-10-06T04:25:07.778Z,12.80
2023-10-06T04:26:07.869Z,12.60
2023-10-06T04:27:07.769Z,12.80
2023-10-06T04:28:07.810Z,13.10
2023-10-06T04:29:08.098Z,13.20
2023-10-06T04:30:07.724Z,12.40
2023-10-06T04:31:07.727Z,12.80
2023-10-06T04:32:07.722Z,13.00
2023-10-06T04:33:07.731Z,13.40
2023-10-06T04:34:07.758Z,11.80
2023-10-06T04:35:07.715Z,12.50
2023-10-06T04:36:07.656Z,12.60
2023-10-06T04:37:07.634Z,13.30
2023-10-06T04:38:07.621Z,13.10
2023-10-06T04:39:07.755Z,12.10
2023-10-06T04:40:07.724Z,12.30
2023-10-06T04:41:07.563Z,12.20
2023-10-06T04:42:07.551Z,12.20
2023-10-06T04:43:07.538Z,11.60
2023-10-06T04:44:07.553Z,11.60
2023-10-06T04:45:07.503Z,12.00
2023-10-06T04:46:07.590Z,11.00
2023-10-06T04:47:07.530Z,10.60
2023-10-06T04:48:07.465Z,11.20
2023-10-06T04:49:07.687Z,11.90
2023-10-06T04:50:07.454Z,11.90
2023-10-06T04:51:07.452Z,12.20
2023-10-06T04:52:07.414Z,12.50
2023-10-06T04:53:07.495Z,13.80
2023-10-06T04:54:07.400Z,14.00
2023-10-06T04:55:07.362Z,13.80
2023-10-06T04:56:07.385Z,16.00
2023-10-06T04:57:07.403Z,14.20
2023-10-06T04:58:07.349Z,14.10
2023-10-06T04:59:08.063Z,16.60
2023-10-06T05:00:07.304Z,15.30
2023-10-06T05:01:07.285Z,13.70
2023-10-06T05:02:07.388Z,17.00
2023-10-06T05:03:07.400Z,15.00
2023-10-06T05:04:07.293Z,14.30
2023-10-06T05:05:07.320Z,14.60
2023-10-06T05:06:07.228Z,14.90
2023-10-06T05:07:07.222Z,15.60
2023-10-06T05:08:07.256Z,15.20
2023-10-06T05:09:07.336Z,15.20
2023-10-06T05:10:07.169Z,14.10
2023-10-06T05:11:08.069Z,14.20
2023-10-06T05:12:07.135Z,20.40
2023-10-06T05:13:07.146Z,15.90
2023-10-06T05:14:07.175Z,18.80
2023-10-06T05:15:07.109Z,17.70
2023-10-06T05:16:07.100Z,17.30
2023-10-06T05:17:07.088Z,17.10
2023-10-06T05:18:07.101Z,17.20
2023-10-06T05:19:07.223Z,17.80
2023-10-06T05:20:07.105Z,15.90
2023-10-06T05:21:07.035Z,16.60
2023-10-06T05:22:07.013Z,16.70
2023-10-06T05:23:07.065Z,17.50
2023-10-06T05:24:06.985Z,15.40
2023-10-06T05:25:06.998Z,15.20
2023-10-06T05:26:06.995Z,16.10
2023-10-06T05:27:07.055Z,16.30
2023-10-06T05:28:06.930Z,15.50
2023-10-06T05:29:07.052Z,15.20
2023-10-06T05:30:06.941Z,16.10
2023-10-06T05:31:06.882Z,16.20
2023-10-06T05:32:06.989Z,16.10
2023-10-06T05:33:06.986Z,15.50
2023-10-06T05:34:06.846Z,17.00
2023-10-06T05:35:06.845Z,15.70
2023-10-06T05:36:06.838Z,14.20
2023-10-06T05:37:06.825Z,14.30
2023-10-06T05:38:06.811Z,12.70
2023-10-06T05:39:06.946Z,13.80
2023-10-06T05:40:06.792Z,12.50
2023-10-06T05:41:06.800Z,12.60
2023-10-06T05:42:06.768Z,12.90
2023-10-06T05:43:06.712Z,12.40
2023-10-06T05:44:06.827Z,11.70
2023-10-06T05:45:06.819Z,11.80
2023-10-06T05:46:06.718Z,11.10
2023-10-06T05:47:06.752Z,11.50
2023-10-06T05:48:06.762Z,11.70
2023-10-06T05:49:06.733Z,12.00
2023-10-06T05:50:06.670Z,12.40
2023-10-06T05:51:06.950Z,12.20
2023-10-06T05:52:06.640Z,12.50
2023-10-06T05:53:06.652Z,12.40
2023-10-06T05:54:06.585Z,13.90
2023-10-06T05:55:06.592Z,14.20
2023-10-06T05:56:06.607Z,14.80
2023-10-06T05:57:06.545Z,13.90
2023-10-06T05:58:06.546Z,13.50
2023-10-06T05:59:06.713Z,13.40
2023-10-06T06:00:06.485Z,13.50
2023-10-06T06:01:06.524Z,14.50
2023-10-06T06:02:06.483Z,14.00
2023-10-06T06:03:06.462Z,13.70
2023-10-06T06:04:06.490Z,13.10
2023-10-06T06:05:06.484Z,13.00
2023-10-06T06:06:06.428Z,13.20
2023-10-06T06:07:06.413Z,13.10
2023-10-06T06:08:06.439Z,12.60
2023-10-06T06:09:06.481Z,13.90
2023-10-06T06:10:06.372Z,13.70
2023-10-06T06:11:06.412Z,15.00
2023-10-06T06:12:06.357Z,13.90
2023-10-06T06:13:06.330Z,13.30
2023-10-06T06:14:16.845Z,13.00
2023-10-06T06:15:06.328Z,13.50
2023-10-06T06:16:06.432Z,12.80
2023-10-06T06:17:06.291Z,13.10
2023-10-06T06:18:06.378Z,12.60
2023-10-06T06:19:06.281Z,13.20
2023-10-06T06:20:17.877Z,12.80
2023-10-06T06:21:06.268Z,13.20
2023-10-06T06:22:06.236Z,13.20
2023-10-06T06:23:06.299Z,12.40
2023-10-06T06:24:06.222Z,12.10
2023-10-06T06:25:06.173Z,11.40
2023-10-06T06:26:06.190Z,13.30
2023-10-06T06:27:06.164Z,12.00
2023-10-06T06:28:06.127Z,10.40
2023-10-06T06:29:06.145Z,9.80
2023-10-06T06:30:06.109Z,8.90
2023-10-06T06:31:06.531Z,8.60
2023-10-06T06:32:06.109Z,9.10
2023-10-06T06:33:06.204Z,9.70
2023-10-06T06:34:06.030Z,10.30
2023-10-06T06:35:06.050Z,10.00
2023-10-06T06:36:06.020Z,8.50
2023-10-06T06:37:05.993Z,10.10
2023-10-06T06:38:06.191Z,10.20
2023-10-06T06:39:06.001Z,9.30
2023-10-06T06:40:05.963Z,8.90
2023-10-06T06:41:05.976Z,9.20
2023-10-06T06:42:05.945Z,8.80
2023-10-06T06:43:05.918Z,8.50
2023-10-06T06:44:05.950Z,9.00
2023-10-06T06:45:05.930Z,8.30
2023-10-06T06:46:05.930Z,8.90
2023-10-06T06:47:05.870Z,8.40
2023-10-06T06:48:05.868Z,8.20
2023-10-06T06:49:05.843Z,7.80
2023-10-06T06:50:05.903Z,8.30
2023-10-06T06:51:05.813Z,8.50
2023-10-06T06:52:05.821Z,8.20
2023-10-06T06:53:05.857Z,8.20
2023-10-06T06:54:05.765Z,8.00
2023-10-06T06:55:05.758Z,8.40
2023-10-06T06:56:05.811Z,8.20
2023-10-06T06:57:05.751Z,8.40
2023-10-06T06:58:05.712Z,9.20
2023-10-06T06:59:05.769Z,8.50
2023-10-06T07:00:05.722Z,8.80
2023-10-06T07:01:05.698Z,8.40
2023-10-06T07:02:05.730Z,7.50
2023-10-06T07:03:05.667Z,7.90
2023-10-06T07:04:05.617Z,8.10
2023-10-06T07:05:05.650Z,8.50
2023-10-06T07:06:05.622Z,8.00
2023-10-06T07:07:05.602Z,7.70
2023-10-06T07:08:05.637Z,7.40
2023-10-06T07:09:05.572Z,7.40
2023-10-06T07:10:05.542Z,7.60
2023-10-06T07:11:05.547Z,7.50
2023-10-06T07:12:05.525Z,7.30
2023-10-06T07:13:05.540Z,7.20
2023-10-06T07:14:05.561Z,7.10
2023-10-06T07:15:05.994Z,7.30
2023-10-06T07:16:05.469Z,7.60
2023-10-06T07:17:05.552Z,6.90
2023-10-06T07:18:05.505Z,6.50
2023-10-06T07:19:05.460Z,6.60
2023-10-06T07:20:05.534Z,6.50
2023-10-06T07:21:05.404Z,6.70
2023-10-06T07:22:05.373Z,6.40
2023-10-06T07:23:05.398Z,6.40
2023-10-06T07:24:05.365Z,6.40
2023-10-06T07:25:05.368Z,6.10
2023-10-06T07:26:05.377Z,6.20
2023-10-06T07:27:05.337Z,6.60
2023-10-06T07:28:05.308Z,6.10
2023-10-06T07:29:05.313Z,6.40
2023-10-06T07:30:05.288Z,6.30
2023-10-06T07:31:05.313Z,6.40
2023-10-06T07:32:05.332Z,6.50
2023-10-06T07:33:05.275Z,6.20
2023-10-06T07:34:05.227Z,6.10
2023-10-06T07:35:05.235Z,5.80
2023-10-06T07:36:05.201Z,5.30
2023-10-06T07:37:05.231Z,6.00
2023-10-06T07:38:05.272Z,7.30
2023-10-06T07:39:05.145Z,5.40
2023-10-06T07:40:05.132Z,5.70
2023-10-06T07:41:05.187Z,5.40
2023-10-06T07:42:05.146Z,5.40
2023-10-06T07:43:05.227Z,5.30
2023-10-06T07:44:05.203Z,5.80
2023-10-06T07:45:05.086Z,5.90
2023-10-06T07:46:05.100Z,5.90
2023-10-06T07:47:05.093Z,6.60
2023-10-06T07:48:05.061Z,6.10
2023-10-06T07:49:05.021Z,6.30
2023-10-06T07:50:05.003Z,6.50
2023-10-06T07:51:05.031Z,5.30
2023-10-06T07:52:04.994Z,6.00
2023-10-06T07:53:05.041Z,5.50
2023-10-06T07:54:05.704Z,5.40
2023-10-06T07:55:04.935Z,5.20
2023-10-06T07:56:04.959Z,5.00
2023-10-06T07:57:04.922Z,5.10
2023-10-06T07:58:04.973Z,5.50
2023-10-06T07:59:04.917Z,5.60
2023-10-06T08:00:04.906Z,5.50
2023-10-06T08:01:04.901Z,4.70
2023-10-06T08:02:04.866Z,4.80
2023-10-06T08:03:04.869Z,4.80
2023-10-06T08:04:04.874Z,4.60
2023-10-06T08:05:04.894Z,4.40
2023-10-06T08:06:04.796Z,4.40
2023-10-06T08:07:04.778Z,4.80
2023-10-06T08:08:04.788Z,4.60
2023-10-06T08:09:04.745Z,4.90
2023-10-06T08:10:04.773Z,4.10
2023-10-06T08:11:04.863Z,4.80
2023-10-06T08:12:04.701Z,4.40
2023-10-06T08:13:04.688Z,4.30
2023-10-06T08:14:04.707Z,4.10
2023-10-06T08:15:04.666Z,4.10
2023-10-06T08:16:04.722Z,4.20
2023-10-06T08:17:04.670Z,4.00
2023-10-06T08:18:04.641Z,4.40
2023-10-06T08:19:04.602Z,4.00
2023-10-06T08:20:04.606Z,4.20
2023-10-06T08:21:04.709Z,4.00
2023-10-06T08:22:04.926Z,4.10
2023-10-06T08:23:04.567Z,4.30
2023-10-06T08:24:04.551Z,4.00
2023-10-06T08:25:04.522Z,4.90
2023-10-06T08:26:04.541Z,3.90
2023-10-06T08:27:04.522Z,4.10
2023-10-06T08:28:04.522Z,4.20
2023-10-06T08:29:04.584Z,3.80
2023-10-06T08:30:04.461Z,4.20
2023-10-06T08:31:05.147Z,6.80
2023-10-06T08:32:04.496Z,3.80
2023-10-06T08:33:04.525Z,4.00
2023-10-06T08:34:04.497Z,4.00
2023-10-06T08:35:04.431Z,3.70
2023-10-06T08:36:04.361Z,3.60
2023-10-06T08:37:04.381Z,3.90
2023-10-06T08:38:04.388Z,4.10
2023-10-06T08:39:04.349Z,3.70
2023-10-06T08:40:04.328Z,4.30
2023-10-06T08:41:04.593Z,3.60
2023-10-06T08:42:04.295Z,4.10
2023-10-06T08:43:04.276Z,3.80
2023-10-06T08:44:04.342Z,3.80
2023-10-06T08:45:04.340Z,4.00
2023-10-06T08:46:04.334Z,4.10
2023-10-06T08:47:16.306Z,3.60
2023-10-06T08:48:05.369Z,3.80
2023-10-06T08:49:04.295Z,3.60
2023-10-06T08:50:04.231Z,3.60
2023-10-06T08:51:04.203Z,3.50
2023-10-06T08:52:04.190Z,3.40
2023-10-06T08:53:04.153Z,3.60
2023-10-06T08:54:04.154Z,3.70
2023-10-06T08:55:04.133Z,3.50
2023-10-06T08:56:04.119Z,3.60
2023-10-06T08:57:04.077Z,3.40
2023-10-06T08:58:05.119Z,3.80
2023-10-06T08:59:04.308Z,3.60
2023-10-06T09:00:04.159Z,3.90
2023-10-06T09:01:04.105Z,3.40
2023-10-06T09:02:04.046Z,3.40
2023-10-06T09:03:04.072Z,3.60
2023-10-06T09:04:04.067Z,3.70
2023-10-06T09:05:04.017Z,3.80
2023-10-06T09:06:03.983Z,4.00
2023-10-06T09:07:03.977Z,3.60
2023-10-06T09:08:03.978Z,3.40
2023-10-06T09:09:03.928Z,3.50
2023-10-06T09:10:03.919Z,3.40
2023-10-06T09:11:03.936Z,3.20
2023-10-06T09:12:03.899Z,3.50
2023-10-06T09:13:03.876Z,3.40
2023-10-06T09:14:03.868Z,3.60
2023-10-06T09:15:03.834Z,3.50
2023-10-06T09:16:04.366Z,3.30
2023-10-06T09:17:03.877Z,3.70
2023-10-06T09:18:03.861Z,3.50
2023-10-06T09:19:03.811Z,3.80
2023-10-06T09:20:10.577Z,3.70
2023-10-06T09:21:03.768Z,3.40
2023-10-06T09:22:03.784Z,3.40
2023-10-06T09:23:03.793Z,3.60
